Time;durP1;ratioP1;P1;durP2;ratioP2;P2;SDS_P1;SDS_P2;PMS_P1;PMS_P2;Temp;Humidity;BMP_temperature;BMP_pressure;BME280_temperature;BME280_humidity;BME280_pressure;Samples;Min_cycle;Max_cycle;Signal;HPM_P1;HPM_P2
2023/05/03 00:02:09;;;;;;;3.35;1.42;;;13.50;69.90;;;;;;4900022;29;20024;-83
2023/05/03 00:04:35;;;;;;;3.58;1.30;;;13.50;69.90;;;;;;4902004;29;20116;-84
2023/05/03 00:07:01;;;;;;;2.67;1.42;;;13.50;69.80;;;;;;4919317;29;20043;-87
2023/05/03 00:09:26;;;;;;;4.05;1.50;;;13.50;69.90;;;;;;4901927;29;20036;-87
2023/05/03 00:11:54;;;;;;;3.33;1.20;;;13.50;69.90;;;;;;4901227;29;20024;-85
2023/05/03 00:14:20;;;;;;;1.92;1.10;;;13.50;70.00;;;;;;4900767;29;20459;-84
2023/05/03 00:16:45;;;;;;;3.35;1.40;;;13.50;70.00;;;;;;4900146;29;20036;-84
2023/05/03 00:19:11;;;;;;;3.13;1.40;;;13.50;70.10;;;;;;4916743;29;20024;-84
2023/05/03 00:21:36;;;;;;;4.63;1.45;;;13.50;70.10;;;;;;4901345;29;20028;-84
2023/05/03 00:24:02;;;;;;;2.83;1.50;;;13.50;70.00;;;;;;4918576;29;20028;-85
2023/05/03 00:26:28;;;;;;;2.08;1.30;;;13.50;70.10;;;;;;4900786;29;20486;-84
2023/05/03 00:28:53;;;;;;;3.58;1.50;;;13.50;70.10;;;;;;4916781;29;20035;-85
2023/05/03 00:31:19;;;;;;;3.25;1.30;;;13.50;70.10;;;;;;4900342;29;20057;-83
2023/05/03 00:33:44;;;;;;;2.92;1.30;;;13.50;70.10;;;;;;4900609;29;20075;-84
2023/05/03 00:36:12;;;;;;;3.25;1.30;;;13.50;70.10;;;;;;4899635;29;20598;-85
2023/05/03 00:38:39;;;;;;;3.00;1.30;;;13.50;70.10;;;;;;4900058;29;20083;-83
2023/05/03 00:41:05;;;;;;;4.10;1.50;;;13.50;70.10;;;;;;4917152;29;20032;-83
2023/05/03 00:43:31;;;;;;;2.85;1.30;;;13.50;70.20;;;;;;4900433;29;20066;-84
2023/05/03 00:46:02;;;;;;;2.13;1.35;;;13.50;70.20;;;;;;4917216;29;20031;-84
2023/05/03 00:48:27;;;;;;;2.88;1.35;;;13.50;70.20;;;;;;4899979;29;20028;-83
2023/05/03 00:50:55;;;;;;;2.65;1.35;;;13.50;70.70;;;;;;4916495;29;20059;-84
2023/05/03 00:53:21;;;;;;;3.13;1.40;;;13.50;70.20;;;;;;4899462;29;20036;-85
2023/05/03 00:55:50;;;;;;;3.47;1.35;;;13.50;70.20;;;;;;4899728;29;20055;-85
2023/05/03 00:58:16;;;;;;;3.33;1.35;;;13.40;70.20;;;;;;4916943;29;20450;-84
2023/05/03 01:00:41;;;;;;;2.28;1.23;;;13.50;70.20;;;;;;4901406;29;20024;-84
2023/05/03 01:03:07;;;;;;;2.08;1.23;;;13.50;70.20;;;;;;4906281;29;20084;-84
2023/05/03 01:05:46;;;;;;;3.55;1.67;;;13.50;70.20;;;;;;4906142;29;20036;-84
2023/05/03 01:08:22;;;;;;;2.35;1.38;;;13.40;70.20;;;;;;4906347;29;20084;-84
2023/05/03 01:11:05;;;;;;;2.63;1.30;;;13.50;70.30;;;;;;4905471;29;20051;-85
2023/05/03 01:13:53;;;;;;;2.03;1.30;;;13.50;70.30;;;;;;4905828;29;20084;-84
2023/05/03 01:16:45;;;;;;;3.15;1.33;;;13.50;70.30;;;;;;4905793;29;20084;-84
2023/05/03 01:19:36;;;;;;;3.33;1.45;;;13.40;70.20;;;;;;4906151;29;20489;-84
2023/05/03 01:22:23;;;;;;;;;;;13.50;70.30;;;;;;4906281;29;20028;-83
2023/05/03 01:24:56;;;;;;;3.65;1.38;;;13.50;70.30;;;;;;4905644;29;19907;-85
2023/05/03 01:27:21;;;;;;;2.22;1.20;;;13.50;70.20;;;;;;4905555;29;20028;-84
2023/05/03 01:29:47;;;;;;;3.53;1.40;;;13.40;70.20;;;;;;4905713;29;20047;-84
2023/05/03 01:32:20;;;;;;;3.40;1.50;;;13.40;70.20;;;;;;4905748;29;20079;-83
2023/05/03 01:34:52;;;;;;;2.72;1.40;;;13.40;70.80;;;;;;4905820;29;20036;-85
2023/05/03 01:37:19;;;;;;;2.05;1.30;;;13.50;70.30;;;;;;4905453;29;20489;-85
2023/05/03 01:39:49;;;;;;;2.42;1.30;;;13.40;70.30;;;;;;4905518;29;20115;-85
2023/05/03 01:42:15;;;;;;;2.50;1.35;;;13.40;70.30;;;;;;4922028;29;20035;-83
2023/05/03 01:44:42;;;;;;;2.50;1.10;;;13.50;70.30;;;;;;4905470;29;20036;-84
2023/05/03 01:47:08;;;;;;;2.55;1.35;;;13.50;70.30;;;;;;4922489;29;20032;-84
2023/05/03 01:49:34;;;;;;;2.70;1.45;;;13.40;70.30;;;;;;4905336;29;20483;-83
2023/05/03 01:52:00;;;;;;;2.92;1.35;;;13.40;70.30;;;;;;4905147;29;20128;-84
2023/05/03 01:54:25;;;;;;;2.67;1.55;;;13.40;70.30;;;;;;4905343;29;20039;-83
2023/05/03 01:56:51;;;;;;;2.78;1.40;;;13.50;70.30;;;;;;4905266;29;20034;-83
2023/05/03 01:59:16;;;;;;;3.03;1.48;;;13.40;70.30;;;;;;4922129;29;20070;-83
2023/05/03 02:01:41;;;;;;;3.10;1.30;;;13.40;70.30;;;;;;4908438;29;20030;-85
2023/05/03 02:04:07;;;;;;;2.65;1.45;;;13.40;70.30;;;;;;4926414;29;20028;-85
2023/05/03 02:06:32;;;;;;;2.35;1.30;;;13.40;70.30;;;;;;4904341;29;20020;-85
2023/05/03 02:08:58;;;;;;;3.42;1.40;;;13.40;70.40;;;;;;4909000;29;20032;-84
2023/05/03 02:11:23;;;;;;;2.88;1.50;;;13.40;70.40;;;;;;4924456;29;20057;-83
2023/05/03 02:13:49;;;;;;;2.40;1.35;;;13.40;70.30;;;;;;4902850;29;20630;-84
2023/05/03 02:16:16;;;;;;;2.97;1.40;;;13.40;70.30;;;;;;4919364;29;20036;-84
2023/05/03 02:18:42;;;;;;;2.55;1.58;;;13.40;70.40;;;;;;4904316;29;20055;-85
2023/05/03 02:21:08;;;;;;;2.90;1.50;;;13.40;70.40;;;;;;4905328;29;20473;-85
2023/05/03 02:23:34;;;;;;;2.55;1.55;;;13.40;70.40;;;;;;4905425;29;20028;-85
2023/05/03 02:25:59;;;;;;;3.45;1.60;;;13.40;70.40;;;;;;4905158;29;20020;-84
2023/05/03 02:28:25;;;;;;;2.65;1.65;;;13.40;70.40;;;;;;4903372;29;20055;-84
2023/05/03 02:30:50;;;;;;;2.42;1.35;;;13.40;70.40;;;;;;4919098;29;20036;-83
2023/05/03 02:33:16;;;;;;;1.73;1.23;;;13.40;70.40;;;;;;4920336;29;20524;-83
2023/05/03 02:35:41;;;;;;;2.70;1.50;;;13.40;70.40;;;;;;4904307;29;20032;-84
2023/05/03 02:38:07;;;;;;;3.67;1.60;;;13.40;70.40;;;;;;4920008;29;20032;-84
2023/05/03 02:40:33;;;;;;;3.30;1.60;;;13.40;70.40;;;;;;4917114;29;20028;-84
2023/05/03 02:42:58;;;;;;;2.53;1.48;;;13.40;70.40;;;;;;4903661;29;20052;-84
2023/05/03 02:45:24;;;;;;;3.65;1.60;;;13.40;70.40;;;;;;4904108;29;20024;-86
2023/05/03 02:47:49;;;;;;;3.13;1.52;;;13.30;70.40;;;;;;4903859;29;20032;-85
2023/05/03 02:50:15;;;;;;;2.53;1.45;;;13.40;70.50;;;;;;4921023;29;20092;-85
2023/05/03 02:52:40;;;;;;;3.13;1.40;;;13.40;70.50;;;;;;4903737;29;20063;-84
2023/05/03 02:55:06;;;;;;;3.55;1.60;;;13.40;70.50;;;;;;4903623;29;20028;-85
2023/05/03 02:57:32;;;;;;;2.10;1.38;;;13.40;70.50;;;;;;4904890;29;20421;-85
2023/05/03 02:59:57;;;;;;;2.92;1.63;;;13.40;70.50;;;;;;4921954;29;20546;-85
2023/05/03 03:02:23;;;;;;;2.78;1.58;;;13.40;70.50;;;;;;4904494;29;20034;-84
2023/05/03 03:04:48;;;;;;;4.13;1.55;;;13.40;70.50;;;;;;4905202;29;20057;-85
2023/05/03 03:07:14;;;;;;;2.85;1.50;;;13.40;70.50;;;;;;4905307;29;20029;-83
2023/05/03 03:09:39;;;;;;;2.78;1.52;;;13.40;70.50;;;;;;4921680;29;20099;-86
2023/05/03 03:12:05;;;;;;;3.28;1.92;;;13.40;70.50;;;;;;4904699;29;20382;-84
2023/05/03 03:14:30;;;;;;;4.25;1.70;;;13.40;70.50;;;;;;4918646;29;20112;-84
2023/05/03 03:16:57;;;;;;;3.20;1.63;;;13.40;70.50;;;;;;4919875;29;20036;-85
2023/05/03 03:19:22;;;;;;;2.85;1.55;;;13.40;70.60;;;;;;4904105;29;20625;-85
2023/05/03 03:21:48;;;;;;;2.15;1.55;;;13.40;70.60;;;;;;4919499;29;20060;-88
2023/05/03 03:24:14;;;;;;;2.40;1.70;;;13.40;70.60;;;;;;4919962;29;20058;-85
2023/05/03 03:26:40;;;;;;;3.63;1.70;;;13.40;70.60;;;;;;4903856;29;20028;-84
2023/05/03 03:29:05;;;;;;;3.47;1.80;;;13.30;70.50;;;;;;4921206;29;20032;-84
2023/05/03 03:31:31;;;;;;;3.10;1.80;;;13.40;70.60;;;;;;4906256;29;20125;-84
2023/05/03 03:33:56;;;;;;;2.03;1.40;;;13.40;70.60;;;;;;4903153;29;20374;-83
2023/05/03 03:36:22;;;;;;;3.08;1.75;;;13.30;70.50;;;;;;4902729;29;20035;-83
2023/05/03 03:38:47;;;;;;;3.35;1.73;;;13.40;70.60;;;;;;4917886;29;20031;-85
2023/05/03 03:41:13;;;;;;;3.67;1.60;;;13.30;70.50;;;;;;4922681;29;20040;-83
2023/05/03 03:43:46;;;;;;;3.33;1.70;;;13.40;70.60;;;;;;4924736;29;20021;-86
2023/05/03 03:53:15;;;;;;;;;;;;;;;;;;;;;
2023/05/03 03:55:44;;;;;;;4.15;1.70;;;13.30;70.50;;;;;;4936736;28;20031;-83
2023/05/03 03:58:13;;;;;;;4.13;1.92;;;14.10;70.90;;;;;;4931048;29;20103;-82
2023/05/03 04:00:40;;;;;;;3.47;1.55;;;13.40;70.60;;;;;;4936181;29;20399;-84
2023/05/03 04:03:06;;;;;;;2.97;1.63;;;13.40;70.60;;;;;;4934940;29;20031;-82
2023/05/03 04:05:49;;;;;;;3.35;1.73;;;13.40;70.60;;;;;;4934987;28;20490;-83
2023/05/03 04:08:28;;;;;;;3.97;1.95;;;13.40;70.60;;;;;;4922990;29;20149;-84
2023/05/03 04:14:59;;;;;;;3.53;1.70;;;13.30;70.50;;;;;;4898878;29;20246;-80
2023/05/03 04:28:39;;;;;;;2.80;1.90;;;13.30;70.40;;;;;;4867492;29;20045;-85
2023/05/03 04:32:01;;;;;;;4.50;2.00;;;13.20;70.40;;;;;;4857901;29;20032;-83
2023/05/03 04:35:18;;;;;;;2.90;1.70;;;13.20;70.40;;;;;;4842823;29;20038;-84
2023/05/03 05:01:36;;;;;;;3.15;1.90;;;13.40;70.60;;;;;;4855260;29;20052;-82
2023/05/03 05:04:29;;;;;;;4.65;2.35;;;14.00;70.80;;;;;;4854925;29;20566;-86
2023/05/03 05:14:40;;;;;;;3.33;1.85;;;13.40;70.50;;;;;;4837665;29;20059;-80
2023/05/03 05:17:05;;;;;;;5.18;2.72;;;13.30;70.40;;;;;;4837164;29;20128;-80
2023/05/03 05:19:31;;;;;;;4.25;2.22;;;13.40;70.50;;;;;;4931323;29;20434;-82
2023/05/03 05:21:56;;;;;;;3.10;1.90;;;13.40;70.50;;;;;;4931840;29;20035;-80
2023/05/03 05:24:22;;;;;;;3.00;1.85;;;13.40;70.50;;;;;;4933421;29;20166;-82
2023/05/03 05:26:48;;;;;;;3.72;2.00;;;13.40;70.50;;;;;;4936113;29;20165;-84
2023/05/03 05:29:13;;;;;;;24.92;3.70;;;13.40;70.50;;;;;;4934313;29;20082;-83
2023/05/03 05:31:39;;;;;;;17.95;3.60;;;13.30;67.70;;;;;;4932935;29;20485;-83
2023/05/03 05:34:04;;;;;;;11.32;3.67;;;13.20;65.50;;;;;;4933285;29;20027;-84
2023/05/03 05:36:30;;;;;;;13.82;3.67;;;13.00;64.00;;;;;;4917436;29;20023;-84
2023/05/03 05:38:56;;;;;;;15.60;3.75;;;13.00;64.60;;;;;;4933915;29;20485;-83
2023/05/03 05:41:21;;;;;;;12.32;3.72;;;13.00;64.00;;;;;;4929995;29;20413;-83
2023/05/03 05:43:47;;;;;;;11.60;3.22;;;13.00;65.60;;;;;;4931711;29;20094;-83
2023/05/03 05:46:12;;;;;;;14.85;3.40;;;13.10;65.30;;;;;;4936852;29;20023;-85
2023/05/03 05:48:40;;;;;;;15.68;3.90;;;13.10;64.80;;;;;;4922672;29;20519;-85
2023/05/03 05:51:06;;;;;;;13.00;3.75;;;13.20;65.00;;;;;;4941072;29;20493;-84
2023/05/03 05:53:31;;;;;;;10.40;3.40;;;13.20;65.30;;;;;;4939324;29;20083;-85
2023/05/03 05:55:57;;;;;;;8.95;3.22;;;13.30;65.70;;;;;;4940971;29;20477;-84
2023/05/03 05:58:22;;;;;;;10.18;3.55;;;13.30;65.70;;;;;;4941903;29;20043;-83
2023/05/03 06:00:48;;;;;;;11.25;3.50;;;13.40;66.00;;;;;;4940165;29;20034;-84
2023/05/03 06:03:14;;;;;;;10.00;3.45;;;13.40;66.30;;;;;;4940667;29;20095;-84
2023/05/03 06:05:40;;;;;;;12.10;3.83;;;13.30;66.30;;;;;;4923468;29;20032;-83
2023/05/03 06:08:05;;;;;;;8.25;3.15;;;13.40;66.60;;;;;;4920777;29;20480;-82
2023/05/03 06:10:31;;;;;;;8.82;2.90;;;13.40;66.80;;;;;;4939122;29;20442;-84
2023/05/03 06:12:57;;;;;;;7.95;3.22;;;13.40;67.60;;;;;;4939833;29;20035;-84
2023/05/03 06:15:22;;;;;;;7.60;3.10;;;13.40;66.90;;;;;;4941079;29;20028;-85
2023/05/03 06:17:48;;;;;;;11.10;3.30;;;13.40;66.90;;;;;;4936482;29;20031;-83
2023/05/03 06:20:13;;;;;;;8.93;3.28;;;13.50;67.00;;;;;;4938950;29;20052;-84
2023/05/03 06:22:39;;;;;;;7.95;3.22;;;13.50;67.50;;;;;;4939052;29;20028;-84
2023/05/03 06:25:06;;;;;;;6.53;3.13;;;13.50;67.60;;;;;;4936114;29;20485;-83
2023/05/03 06:27:31;;;;;;;6.10;2.70;;;13.50;67.80;;;;;;4937615;29;20055;-84
2023/05/03 06:29:57;;;;;;;5.60;2.90;;;13.50;68.10;;;;;;4936403;29;20063;-83
2023/05/03 06:32:22;;;;;;;5.05;2.80;;;13.50;67.70;;;;;;4935887;29;20024;-83
2023/05/03 06:34:49;;;;;;;5.85;2.83;;;13.60;67.70;;;;;;4939972;29;20118;-85
2023/05/03 06:37:14;;;;;;;8.43;2.85;;;13.60;67.90;;;;;;4921583;29;20024;-84
2023/05/03 06:39:40;;;;;;;7.15;3.22;;;13.60;67.80;;;;;;4937292;29;20370;-87
2023/05/03 06:42:06;;;;;;;4.93;2.72;;;13.60;67.80;;;;;;4942614;29;20028;-85
2023/05/03 06:44:32;;;;;;;6.40;3.00;;;13.60;67.80;;;;;;4940772;29;20044;-85
2023/05/03 06:46:57;;;;;;;6.15;2.90;;;13.70;67.90;;;;;;4940363;29;20039;-84
2023/05/03 06:49:23;;;;;;;4.97;2.90;;;13.70;68.00;;;;;;4940256;29;20051;-85
2023/05/03 06:51:48;;;;;;;7.65;2.90;;;13.70;68.50;;;;;;4939497;29;20035;-87
2023/05/03 06:54:14;;;;;;;6.30;2.78;;;13.70;68.50;;;;;;4940171;29;20038;-85
2023/05/03 06:56:39;;;;;;;6.15;2.97;;;13.70;68.00;;;;;;4939977;29;20040;-84
2023/05/03 06:59:05;;;;;;;5.68;2.83;;;13.80;68.10;;;;;;4939519;29;20060;-86
2023/05/03 07:01:31;;;;;;;5.38;2.50;;;13.80;68.10;;;;;;4922905;29;20333;-85
2023/05/03 07:03:56;;;;;;;7.57;3.20;;;13.80;68.10;;;;;;4940585;29;20016;-84
2023/05/03 07:06:23;;;;;;;5.50;2.70;;;13.80;68.20;;;;;;4939363;29;20027;-84
2023/05/03 07:08:52;;;;;;;5.10;2.60;;;13.80;68.10;;;;;;4939185;29;20408;-85
2023/05/03 07:11:22;;;;;;;7.25;2.70;;;13.90;68.10;;;;;;4939896;29;20028;-84
2023/05/03 07:13:51;;;;;;;6.53;2.92;;;13.90;68.20;;;;;;4922643;29;20024;-83
2023/05/03 07:16:18;;;;;;;5.05;2.80;;;13.90;68.20;;;;;;4922707;29;20038;-83
2023/05/03 07:18:43;;;;;;;5.03;2.58;;;13.90;68.10;;;;;;4922232;29;20023;-83
2023/05/03 07:21:09;;;;;;;6.82;2.80;;;14.00;68.20;;;;;;4938966;29;20039;-85
2023/05/03 07:23:35;;;;;;;5.53;2.58;;;14.00;68.20;;;;;;4922253;29;20028;-86
2023/05/03 07:26:00;;;;;;;4.38;2.20;;;14.00;68.10;;;;;;4937674;29;20107;-85
2023/05/03 07:28:26;;;;;;;5.70;2.55;;;14.00;68.10;;;;;;4937517;29;20020;-84
2023/05/03 07:30:51;;;;;;;6.00;2.40;;;14.00;68.30;;;;;;4938764;29;20027;-84
2023/05/03 07:33:17;;;;;;;7.82;2.92;;;14.00;68.20;;;;;;4937133;29;20071;-83
2023/05/03 07:35:45;;;;;;;4.22;2.25;;;14.00;68.20;;;;;;4935437;29;20028;-84
2023/05/03 07:38:11;;;;;;;4.47;2.30;;;14.00;68.10;;;;;;4921801;29;20032;-83
2023/05/03 07:40:37;;;;;;;4.88;2.50;;;14.10;68.20;;;;;;4934855;29;20092;-83
2023/05/03 07:43:03;;;;;;;6.15;2.60;;;14.10;68.20;;;;;;4937162;29;20040;-84
2023/05/03 07:45:28;;;;;;;4.38;2.15;;;14.10;68.20;;;;;;4936899;29;20365;-82
2023/05/03 07:47:55;;;;;;;7.20;2.60;;;14.10;68.10;;;;;;4934484;29;20449;-83
2023/05/03 07:50:21;;;;;;;4.85;2.50;;;14.20;68.20;;;;;;4937497;29;20024;-84
2023/05/03 07:52:50;;;;;;;4.13;2.38;;;14.20;68.30;;;;;;4937527;29;20504;-85
2023/05/03 07:55:17;;;;;;;5.05;2.42;;;14.10;68.20;;;;;;4936484;29;20056;-83
2023/05/03 07:57:42;;;;;;;4.22;2.55;;;14.10;68.30;;;;;;4919899;29;20129;-84
2023/05/03 08:00:09;;;;;;;7.80;2.63;;;14.10;68.40;;;;;;4935621;29;20053;-86
2023/05/03 08:02:35;;;;;;;3.80;2.25;;;14.10;68.40;;;;;;4920149;29;20020;-85
2023/05/03 08:05:02;;;;;;;4.57;2.50;;;14.10;68.50;;;;;;4920103;29;20031;-83
2023/05/03 08:07:28;;;;;;;4.45;2.47;;;14.10;68.50;;;;;;4920090;29;20114;-87
2023/05/03 08:09:55;;;;;;;5.70;2.38;;;14.10;68.70;;;;;;4936137;29;20075;-83
2023/05/03 08:12:21;;;;;;;4.60;2.30;;;14.10;68.60;;;;;;4935612;29;20031;-85
2023/05/03 08:14:46;;;;;;;5.13;2.30;;;14.20;68.70;;;;;;4936823;29;20354;-83
2023/05/03 08:17:11;;;;;;;4.90;2.60;;;14.20;68.60;;;;;;4935314;29;20031;-83
2023/05/03 08:19:37;;;;;;;4.35;2.28;;;14.30;68.90;;;;;;4919326;29;20110;-83
2023/05/03 08:22:04;;;;;;;4.45;2.35;;;14.30;68.70;;;;;;4934616;29;20083;-84
2023/05/03 08:24:29;;;;;;;5.20;2.28;;;14.30;68.80;;;;;;4934645;29;20026;-83
2023/05/03 08:26:55;;;;;;;4.38;2.10;;;14.30;68.80;;;;;;4918044;29;20090;-83
2023/05/03 08:29:20;;;;;;;3.83;2.20;;;14.40;68.60;;;;;;4933994;29;20082;-84
2023/05/03 08:31:46;;;;;;;5.32;2.40;;;14.40;68.60;;;;;;4934423;29;20079;-83
2023/05/03 08:34:12;;;;;;;3.75;2.10;;;14.40;68.70;;;;;;4934549;29;20050;-83
2023/05/03 08:36:38;;;;;;;4.60;2.30;;;14.40;68.80;;;;;;4933719;29;20059;-83
2023/05/03 08:39:06;;;;;;;3.88;2.05;;;14.40;68.70;;;;;;4933826;29;20062;-86
2023/05/03 08:41:32;;;;;;;3.97;2.20;;;14.40;68.60;;;;;;4933925;29;20023;-85
2023/05/03 08:43:59;;;;;;;3.75;2.15;;;14.40;68.60;;;;;;4934311;29;20437;-83
2023/05/03 08:46:27;;;;;;;4.72;2.30;;;14.40;68.90;;;;;;4917868;29;20392;-83
2023/05/03 08:48:54;;;;;;;5.20;2.55;;;14.40;68.80;;;;;;4934881;29;20063;-83
2023/05/03 08:51:21;;;;;;;5.10;2.08;;;14.40;68.60;;;;;;4933538;29;20038;-83
2023/05/03 08:53:47;;;;;;;4.65;2.30;;;14.40;68.50;;;;;;4917723;29;20039;-83
2023/05/03 08:56:35;;;;;;;6.10;2.47;;;14.40;68.40;;;;;;4918200;29;20397;-84
2023/05/03 08:59:06;;;;;;;4.40;2.20;;;14.50;68.70;;;;;;4918455;29;20027;-83
2023/05/03 09:01:33;;;;;;;4.38;2.40;;;14.50;68.50;;;;;;4935184;29;20024;-83
2023/05/03 09:03:58;;;;;;;3.60;2.20;;;14.50;68.50;;;;;;4917516;29;20498;-83
2023/05/03 09:06:27;;;;;;;3.30;2.10;;;14.50;68.40;;;;;;4935050;29;20020;-84
2023/05/03 09:08:53;;;;;;;3.70;2.17;;;14.50;68.40;;;;;;4933565;29;20019;-83
2023/05/03 09:11:33;;;;;;;3.85;2.20;;;14.60;68.50;;;;;;4917368;29;20031;-84
2023/05/03 09:14:10;;;;;;;3.63;2.28;;;14.60;68.40;;;;;;4934692;29;20035;-83
2023/05/03 09:16:37;;;;;;;4.72;2.20;;;14.60;68.30;;;;;;4934409;29;20028;-83
2023/05/03 09:19:08;;;;;;;4.20;2.10;;;14.60;68.50;;;;;;4917676;29;20068;-83
2023/05/03 09:21:41;;;;;;;4.77;2.47;;;14.60;68.30;;;;;;4935317;29;20039;-87
2023/05/03 09:24:17;;;;;;;4.53;2.30;;;14.70;68.40;;;;;;4938564;29;20270;-83
2023/05/03 09:26:45;;;;;;;3.65;2.10;;;14.70;68.40;;;;;;4938268;29;20392;-83
2023/05/03 09:29:33;;;;;;;4.22;2.15;;;14.70;68.30;;;;;;4921308;29;20038;-83
2023/05/03 09:32:05;;;;;;;3.30;2.00;;;14.70;68.80;;;;;;4920956;29;20028;-84
2023/05/03 09:34:31;;;;;;;5.32;2.60;;;14.70;68.20;;;;;;4937860;29;20039;-84
2023/05/03 09:36:57;;;;;;;3.15;2.05;;;14.70;68.10;;;;;;4925740;29;20396;-85
2023/05/03 09:39:22;;;;;;;3.45;2.13;;;14.70;68.20;;;;;;4941105;29;20020;-84
2023/05/03 09:41:48;;;;;;;3.78;2.13;;;14.70;68.20;;;;;;4942699;29;20505;-84
2023/05/03 09:44:15;;;;;;;3.95;2.15;;;14.80;68.20;;;;;;4942042;29;20024;-85
2023/05/03 09:47:03;;;;;;;3.45;2.08;;;14.80;68.30;;;;;;4924863;29;20082;-84
2023/05/03 09:49:33;;;;;;;3.90;2.03;;;14.80;68.10;;;;;;4925464;29;20028;-85
2023/05/03 09:52:00;;;;;;;3.10;1.85;;;14.80;68.10;;;;;;4941789;29;20034;-84
2023/05/03 09:54:26;;;;;;;3.33;1.98;;;14.80;68.20;;;;;;4924999;29;20095;-83
2023/05/03 09:56:54;;;;;;;3.70;2.10;;;14.80;68.20;;;;;;4924689;29;20484;-84
2023/05/03 09:59:19;;;;;;;3.00;2.03;;;14.80;68.20;;;;;;4924116;29;20042;-83
2023/05/03 10:01:46;;;;;;;3.70;2.10;;;14.80;68.20;;;;;;4937622;29;20023;-83
2023/05/03 10:04:15;;;;;;;3.25;1.95;;;14.80;68.20;;;;;;4921579;29;20028;-83
2023/05/03 10:06:41;;;;;;;3.42;1.88;;;14.80;68.40;;;;;;4940986;29;20079;-87
2023/05/03 10:09:29;;;;;;;4.30;2.08;;;14.90;68.50;;;;;;4939454;29;20035;-83
2023/05/03 10:11:59;;;;;;;3.95;1.95;;;14.80;68.40;;;;;;4923282;29;20035;-84
2023/05/03 10:14:25;;;;;;;4.50;2.10;;;14.90;68.40;;;;;;4922693;29;20066;-83
2023/05/03 10:16:57;;;;;;;3.30;1.98;;;14.90;68.60;;;;;;4937392;29;20378;-83
2023/05/03 10:19:34;;;;;;;3.47;2.17;;;14.90;68.50;;;;;;4922811;29;20031;-84
2023/05/03 10:22:08;;;;;;;3.55;2.00;;;14.90;68.60;;;;;;4923040;29;20024;-84
2023/05/03 10:24:35;;;;;;;4.07;1.90;;;14.90;68.40;;;;;;4922251;29;20020;-83
2023/05/03 10:27:01;;;;;;;3.15;1.80;;;14.90;68.30;;;;;;4920227;29;20028;-83
2023/05/03 10:29:45;;;;;;;3.63;2.10;;;14.90;68.10;;;;;;4939367;29;20393;-83
2023/05/03 10:32:31;;;;;;;3.60;2.10;;;14.90;68.20;;;;;;4940787;29;20496;-85
2023/05/03 10:34:59;;;;;;;2.33;1.60;;;14.90;68.10;;;;;;4924141;29;20028;-85
2023/05/03 10:37:27;;;;;;;3.50;1.90;;;14.90;68.20;;;;;;4924358;29;20492;-84
2023/05/03 10:39:52;;;;;;;4.68;2.30;;;14.90;68.20;;;;;;4924391;29;20059;-84
2023/05/03 10:42:21;;;;;;;3.03;1.85;;;14.90;68.30;;;;;;4941576;29;20032;-84
2023/05/03 10:44:51;;;;;;;4.38;2.05;;;14.90;68.40;;;;;;4923937;29;20305;-84
2023/05/03 10:47:22;;;;;;;3.50;2.00;;;14.90;68.30;;;;;;4924073;29;20036;-85
2023/05/03 10:50:10;;;;;;;2.50;1.63;;;15.00;68.30;;;;;;4924041;29;20028;-85
2023/05/03 10:52:39;;;;;;;3.33;1.77;;;15.00;68.40;;;;;;4922600;29;20030;-83
2023/05/03 10:55:17;;;;;;;3.20;1.80;;;15.00;68.60;;;;;;4935688;29;20036;-83
2023/05/03 10:57:47;;;;;;;5.03;2.13;;;14.90;68.60;;;;;;4923078;29;20036;-84
2023/05/03 11:00:27;;;;;;;3.53;1.90;;;15.00;68.70;;;;;;4922982;29;20076;-85
2023/05/03 11:03:24;;;;;;;3.08;1.77;;;15.00;68.70;;;;;;4922527;29;20444;-85
2023/05/03 11:05:50;;;;;;;3.00;1.83;;;15.00;68.70;;;;;;4938311;29;20401;-82
2023/05/03 11:08:18;;;;;;;3.33;1.80;;;15.00;68.50;;;;;;4938346;29;20063;-83
2023/05/03 11:10:50;;;;;;;3.53;1.88;;;15.00;68.60;;;;;;4921927;29;20032;-84
2023/05/03 11:13:15;;;;;;;3.83;1.80;;;15.00;68.60;;;;;;4921574;29;20520;-83
2023/05/03 11:15:41;;;;;;;3.47;1.83;;;15.00;68.50;;;;;;4936313;29;20080;-83
2023/05/03 11:18:10;;;;;;;3.92;2.00;;;15.00;69.00;;;;;;4939129;29;20404;-84
2023/05/03 11:20:36;;;;;;;3.58;1.83;;;15.00;68.30;;;;;;4921330;29;20118;-85
2023/05/03 11:23:02;;;;;;;3.15;1.88;;;15.00;68.50;;;;;;4938962;29;20031;-83
2023/05/03 11:25:28;;;;;;;3.65;1.95;;;15.00;68.40;;;;;;4938505;29;20023;-83
2023/05/03 11:27:54;;;;;;;3.90;1.75;;;15.00;68.50;;;;;;4938286;29;20026;-84
2023/05/03 11:30:19;;;;;;;3.83;1.92;;;15.00;68.80;;;;;;4936544;29;20038;-83
2023/05/03 11:32:46;;;;;;;2.92;1.75;;;15.00;68.40;;;;;;4936064;29;20042;-83
2023/05/03 11:35:12;;;;;;;3.25;1.70;;;15.00;68.60;;;;;;4936776;29;20333;-83
2023/05/03 11:37:38;;;;;;;3.88;1.95;;;15.00;68.70;;;;;;4919114;29;20075;-84
2023/05/03 11:40:06;;;;;;;3.50;1.80;;;15.00;68.70;;;;;;4935934;29;20059;-85
2023/05/03 11:42:32;;;;;;;3.25;1.80;;;15.00;68.90;;;;;;4920124;29;20027;-83
2023/05/03 11:45:00;;;;;;;2.88;1.70;;;15.00;69.00;;;;;;4919699;29;20030;-83
2023/05/03 11:47:26;;;;;;;3.25;1.83;;;15.00;69.00;;;;;;4936073;29;20032;-84
2023/05/03 11:49:56;;;;;;;3.20;1.80;;;15.00;68.60;;;;;;4936188;29;20448;-84
2023/05/03 11:52:23;;;;;;;2.92;1.73;;;15.00;68.80;;;;;;4920219;29;20028;-82
2023/05/03 11:54:52;;;;;;;2.78;1.60;;;15.00;69.10;;;;;;4937268;29;20047;-86
2023/05/03 11:57:19;;;;;;;4.05;1.60;;;15.00;69.20;;;;;;4937345;29;20079;-82
2023/05/03 11:59:45;;;;;;;2.17;1.60;;;14.90;69.20;;;;;;4919583;29;20523;-83
2023/05/03 12:02:12;;;;;;;3.00;1.70;;;14.90;69.20;;;;;;4934822;29;20027;-83
2023/05/03 12:04:42;;;;;;;3.47;1.80;;;14.90;69.10;;;;;;4935370;29;20070;-85
2023/05/03 12:07:09;;;;;;;2.45;1.73;;;14.90;69.10;;;;;;4920007;29;20107;-84
2023/05/03 12:09:34;;;;;;;3.78;1.80;;;14.90;68.90;;;;;;4936624;29;20028;-84
2023/05/03 12:12:01;;;;;;;3.50;1.73;;;14.90;69.10;;;;;;4936362;29;20027;-86
2023/05/03 12:14:27;;;;;;;3.25;1.80;;;14.90;69.40;;;;;;4934886;29;20030;-83
2023/05/03 12:16:53;;;;;;;2.60;1.50;;;14.90;68.90;;;;;;4919149;29;20119;-83
2023/05/03 12:19:29;;;;;;;2.72;1.60;;;14.90;68.90;;;;;;4936158;29;20481;-83
2023/05/03 12:21:55;;;;;;;3.15;1.90;;;14.80;68.80;;;;;;4918108;29;20083;-85
2023/05/03 12:24:22;;;;;;;3.13;1.80;;;14.90;68.90;;;;;;4918272;29;20433;-83
2023/05/03 12:26:48;;;;;;;3.70;1.80;;;14.90;68.90;;;;;;4934035;29;20601;-83
2023/05/03 12:29:15;;;;;;;3.35;1.73;;;14.80;68.90;;;;;;4935234;29;20107;-83
2023/05/03 12:31:41;;;;;;;2.75;1.80;;;14.80;68.90;;;;;;4933636;29;20030;-83
2023/05/03 12:34:06;;;;;;;3.28;1.60;;;14.80;68.90;;;;;;4934450;29;20483;-82
2023/05/03 12:36:32;;;;;;;2.67;1.70;;;14.80;69.00;;;;;;4918564;29;20500;-83
2023/05/03 12:39:01;;;;;;;2.97;1.70;;;14.80;69.00;;;;;;4935729;29;20070;-83
2023/05/03 12:41:30;;;;;;;3.28;1.70;;;14.80;69.00;;;;;;4935329;29;20032;-83
2023/05/03 12:43:57;;;;;;;3.13;1.80;;;14.80;69.00;;;;;;4918594;29;20516;-83
2023/05/03 12:46:23;;;;;;;4.28;1.73;;;14.80;69.10;;;;;;4918398;29;20024;-83
2023/05/03 12:48:49;;;;;;;3.85;1.83;;;14.80;69.10;;;;;;4934126;29;20038;-86
2023/05/03 12:51:14;;;;;;;2.97;1.73;;;14.80;69.20;;;;;;4917746;29;20509;-86
2023/05/03 12:53:40;;;;;;;3.20;2.00;;;14.80;69.20;;;;;;4933644;29;20086;-83
2023/05/03 12:56:06;;;;;;;2.80;1.70;;;14.70;69.20;;;;;;4934617;29;20035;-83
2023/05/03 12:58:31;;;;;;;3.53;1.70;;;14.70;69.20;;;;;;4934868;29;20035;-83
2023/05/03 13:00:57;;;;;;;3.65;1.90;;;14.70;69.30;;;;;;4934649;29;20101;-82
2023/05/03 13:03:22;;;;;;;3.47;1.70;;;14.70;69.30;;;;;;4933270;29;20437;-82
2023/05/03 13:05:48;;;;;;;3.55;1.88;;;14.70;69.40;;;;;;4934734;29;20027;-83
2023/05/03 13:08:14;;;;;;;2.90;1.77;;;14.70;69.40;;;;;;4934818;29;20063;-82
2023/05/03 13:10:40;;;;;;;2.72;1.85;;;14.70;69.40;;;;;;4934695;29;20039;-82
2023/05/03 13:13:06;;;;;;;2.63;1.60;;;14.70;69.40;;;;;;4934727;29;20024;-85
2023/05/03 13:15:34;;;;;;;2.60;1.75;;;14.70;69.40;;;;;;4917818;29;20284;-82
2023/05/03 13:18:01;;;;;;;3.63;1.88;;;14.70;69.50;;;;;;4935092;29;20485;-82
2023/05/03 13:20:27;;;;;;;3.30;1.80;;;14.60;69.50;;;;;;4933232;29;20493;-83
2023/05/03 13:22:53;;;;;;;2.95;1.83;;;14.70;69.50;;;;;;4917608;29;20114;-83
2023/05/03 13:25:18;;;;;;;3.45;1.98;;;14.60;69.50;;;;;;4934532;29;20123;-84
2023/05/03 13:27:45;;;;;;;2.60;1.75;;;14.60;69.60;;;;;;4938440;29;20024;-84
2023/05/03 13:30:13;;;;;;;3.10;1.70;;;14.60;69.60;;;;;;4937806;29;20020;-85
2023/05/03 13:32:39;;;;;;;3.60;1.90;;;14.60;69.60;;;;;;4937642;29;20411;-84
2023/05/03 13:35:05;;;;;;;3.05;1.67;;;14.60;69.60;;;;;;4938911;29;20572;-84
2023/05/03 13:37:30;;;;;;;2.40;1.70;;;14.60;69.60;;;;;;4938403;29;20027;-84
2023/05/03 13:39:56;;;;;;;3.78;2.00;;;14.60;69.70;;;;;;4937042;29;20114;-84
2023/05/03 13:42:21;;;;;;;3.65;1.90;;;14.60;69.60;;;;;;4920991;29;20039;-86
2023/05/03 13:44:47;;;;;;;3.28;1.80;;;14.60;69.70;;;;;;4938952;29;20470;-83
2023/05/03 13:47:13;;;;;;;3.90;1.90;;;14.60;69.70;;;;;;4937779;29;20031;-84